»·PEaware :: N915MM KLAS-KRNO

N915MM :: KLAS-KRNO

FLIGHT INFORMATION

Flight Status: Arrived
Operator: Privately registered:
United States
More flights under this callsign
Pilot: Tyler S. (27221)
Aircraft: SOCATA TBM-900
(TBM9)
More flights by this aircraft type
Origin: KLAS McCarran Intl
United States
Destination: KRNO Reno/Tahoe Intl
United States
More flights between these airports :: More routes between these airports
Route: +LAS V105 FMG
File this flight plan on PilotEdge
Remarks:
Altitude:
(Current/Filed)
28,000ft
Speed:
(Current/Filed)
310kts
Departed: 25-Mar-20 09:14 PM
Arrived: 25-Mar-20 10:29 PM
Distance/Time
Traveled:
300nm/1:14
Distance/Time
To Go:
Arrived

Flight Plot

Page will automatically refresh every two minutes.

Flight plan parsing failed; only flown route is shown


Map Options




Map Legend


Flown Route
Filed Route
Departure Airport
Arrival Airport
Navaid (VOR, NDB)
Fix

Horizontal Profiles

Position Reports

Time Latitude Longitude Heading Altitude Ground
Speed
25-Mar-20 20:16 36.081235 -115.170510 89 2184ft 0kts
25-Mar-20 20:17 36.081235 -115.170510 89 2184ft 0kts
25-Mar-20 20:18 36.081235 -115.170510 89 2184ft 0kts
25-Mar-20 20:19 36.081235 -115.170510 89 2184ft 0kts
25-Mar-20 20:20 36.081235 -115.170510 89 2184ft 0kts
25-Mar-20 20:21 36.081235 -115.170510 89 2184ft 0kts
25-Mar-20 20:22 36.081235 -115.170510 89 2184ft 0kts
25-Mar-20 20:23 36.081235 -115.170510 89 2184ft 0kts
25-Mar-20 20:24 36.081235 -115.170510 89 2184ft 0kts
25-Mar-20 20:25 36.081235 -115.170510 89 2184ft 0kts
25-Mar-20 20:26 36.081235 -115.170510 89 2184ft 0kts
25-Mar-20 20:27 36.081235 -115.170510 89 2184ft 0kts
25-Mar-20 20:28 36.081235 -115.170510 89 2184ft 0kts
25-Mar-20 20:29 36.081235 -115.170510 89 2184ft 0kts
25-Mar-20 20:30 36.081235 -115.170510 89 2184ft 0kts
25-Mar-20 20:31 36.081235 -115.170510 89 2184ft 0kts
25-Mar-20 20:32 36.081235 -115.170510 89 2184ft 0kts
25-Mar-20 20:33 36.081235 -115.170510 89 2184ft 0kts
25-Mar-20 20:34 36.081235 -115.170510 89 2184ft 0kts
25-Mar-20 20:35 36.081235 -115.170510 89 2184ft 0kts
25-Mar-20 20:36 36.081235 -115.170510 89 2184ft 0kts
25-Mar-20 20:37 36.081235 -115.170510 89 2184ft 0kts
25-Mar-20 20:38 36.081235 -115.170510 89 2184ft 0kts
25-Mar-20 20:39 36.081235 -115.170510 89 2184ft 0kts
25-Mar-20 20:40 36.081235 -115.170510 89 2184ft 0kts
25-Mar-20 20:41 36.081235 -115.170510 89 2184ft 0kts
25-Mar-20 20:42 36.081235 -115.170510 89 2184ft 0kts
25-Mar-20 20:43 36.081235 -115.170510 89 2184ft 0kts
25-Mar-20 20:44 36.081235 -115.170510 89 2184ft 0kts
25-Mar-20 20:45 36.081235 -115.170510 89 2184ft 0kts
25-Mar-20 20:46 36.081235 -115.170510 89 2184ft 0kts
25-Mar-20 20:47 36.081235 -115.170510 89 2184ft 0kts
25-Mar-20 20:48 36.081235 -115.170510 89 2184ft 0kts
25-Mar-20 20:49 36.081235 -115.170510 89 2184ft 0kts
25-Mar-20 20:50 36.081235 -115.170510 89 2184ft 0kts
25-Mar-20 20:51 36.081235 -115.170510 89 2184ft 0kts
25-Mar-20 20:52 36.081235 -115.170510 89 2184ft 0kts
25-Mar-20 20:53 36.081235 -115.170510 89 2184ft 0kts
25-Mar-20 20:54 36.081235 -115.170510 89 2184ft 0kts
25-Mar-20 20:55 36.081235 -115.170510 89 2184ft 0kts
25-Mar-20 20:56 36.081235 -115.170510 89 2184ft 0kts
25-Mar-20 20:57 36.081235 -115.170510 89 2184ft 0kts
25-Mar-20 20:58 36.081235 -115.170510 89 2184ft 0kts
25-Mar-20 20:59 36.081235 -115.170510 89 2184ft 0kts
25-Mar-20 21:00 36.081235 -115.170510 89 2184ft 0kts
25-Mar-20 21:01 36.081235 -115.170510 89 2184ft 0kts
25-Mar-20 21:02 36.081235 -115.170510 89 2184ft 0kts
25-Mar-20 21:03 36.081235 -115.170510 89 2184ft 0kts
25-Mar-20 21:04 36.081237 -115.170271 89 2184ft 5kts
25-Mar-20 21:05 36.083334 -115.168176 24 2184ft 12kts
25-Mar-20 21:06 36.087629 -115.165736 24 2184ft 17kts
25-Mar-20 21:07 36.091709 -115.163391 24 2184ft 19kts
25-Mar-20 21:08 36.096848 -115.160468 25 2184ft 17kts
25-Mar-20 21:09 36.099088 -115.157948 119 2184ft 0kts
25-Mar-20 21:10 36.099088 -115.157948 119 2184ft 0kts
25-Mar-20 21:11 36.099088 -115.157948 119 2184ft 0kts
25-Mar-20 21:12 36.098723 -115.157213 136 2184ft 11kts
25-Mar-20 21:13 36.078222 -115.169182 223 2849ft 140kts
25-Mar-20 21:14 36.082984 -115.215072 281 5305ft 139kts
25-Mar-20 21:15 36.092415 -115.259995 257 7791ft 132kts
25-Mar-20 21:16 36.088879 -115.305180 256 10042ft 134kts
25-Mar-20 21:17 36.085080 -115.351432 255 12411ft 136kts
25-Mar-20 21:18 36.081470 -115.395151 253 15066ft 124kts
25-Mar-20 21:19 36.078159 -115.434819 251 17630ft 113kts
25-Mar-20 21:20 36.074263 -115.480064 252 19004ft 147kts
25-Mar-20 21:21 36.068978 -115.541745 254 19005ft 200kts
25-Mar-20 21:22 36.062962 -115.613133 255 19083ft 210kts
25-Mar-20 21:23 36.058985 -115.661901 248 22600ft 122kts
25-Mar-20 21:24 36.055263 -115.703967 246 24701ft 124kts
25-Mar-20 21:25 36.051517 -115.746903 245 26694ft 125kts
25-Mar-20 21:26 36.047234 -115.795273 246 28013ft 153kts
25-Mar-20 21:27 36.041800 -115.856627 248 28011ft 198kts
25-Mar-20 21:28 36.035631 -115.927764 249 27998ft 208kts
25-Mar-20 21:29 36.032302 -116.001229 264 27990ft 234kts
25-Mar-20 21:30 36.088336 -116.069872 305 28005ft 320kts
25-Mar-20 21:31 36.159284 -116.133903 299 28007ft 309kts
25-Mar-20 21:32 36.228339 -116.199326 299 28008ft 310kts
25-Mar-20 21:33 36.296957 -116.264519 299 28005ft 310kts
25-Mar-20 21:34 36.365551 -116.329860 299 28008ft 310kts
25-Mar-20 21:35 36.434079 -116.395252 299 28009ft 310kts
25-Mar-20 21:36 36.503744 -116.461898 299 28008ft 310kts
25-Mar-20 21:37 36.573057 -116.528365 299 28005ft 310kts
25-Mar-20 21:38 36.641936 -116.594576 299 28001ft 310kts
25-Mar-20 21:39 36.711749 -116.661823 299 28020ft 310kts
25-Mar-20 21:40 36.781715 -116.729389 299 28021ft 312kts
25-Mar-20 21:41 36.856104 -116.794010 303 28022ft 323kts
25-Mar-20 21:42 36.932515 -116.857894 303 28021ft 325kts
25-Mar-20 21:43 37.008702 -116.921772 304 28021ft 325kts
25-Mar-20 21:44 37.085431 -116.986275 304 28014ft 325kts
25-Mar-20 21:45 37.162452 -117.051169 304 27854ft 326kts
25-Mar-20 21:46 37.238906 -117.115760 304 27848ft 325kts
25-Mar-20 21:47 37.314909 -117.180141 304 27846ft 324kts
25-Mar-20 21:48 37.391272 -117.244958 304 27846ft 324kts
25-Mar-20 21:49 37.467364 -117.309729 305 27847ft 324kts
25-Mar-20 21:50 37.543286 -117.374493 305 27848ft 325kts
25-Mar-20 21:51 37.619709 -117.439869 305 27848ft 325kts
25-Mar-20 21:52 37.696254 -117.505493 306 27849ft 326kts
25-Mar-20 21:53 37.773179 -117.571632 306 27851ft 327kts
25-Mar-20 21:54 37.849434 -117.637362 306 27859ft 328kts
25-Mar-20 21:55 37.926280 -117.703761 306 27885ft 329kts
25-Mar-20 21:56 38.002858 -117.770408 303 27882ft 322kts
25-Mar-20 21:57 38.067132 -117.846942 297 27885ft 313kts
25-Mar-20 21:58 38.131262 -117.923949 297 27859ft 312kts
25-Mar-20 21:59 38.195309 -118.001053 297 27854ft 310kts
25-Mar-20 22:01 38.258952 -118.077886 297 27850ft 310kts
25-Mar-20 22:02 38.322594 -118.154867 298 27595ft 306kts
25-Mar-20 22:03 38.383666 -118.229042 300 25799ft 292kts
25-Mar-20 22:04 38.443316 -118.301611 302 24028ft 288kts
25-Mar-20 22:05 38.498494 -118.368629 301 23876ft 249kts
25-Mar-20 22:06 38.552693 -118.435065 303 23895ft 284kts
25-Mar-20 22:07 38.612618 -118.508366 304 23888ft 296kts
25-Mar-20 22:08 38.673597 -118.583187 305 23887ft 299kts
25-Mar-20 22:09 38.719980 -118.667288 292 23899ft 288kts
25-Mar-20 22:10 38.764379 -118.755751 292 23896ft 290kts
25-Mar-20 22:11 38.808047 -118.844290 292 23587ft 286kts
25-Mar-20 22:12 38.847946 -118.927021 292 22060ft 263kts
25-Mar-20 22:13 38.885331 -119.008928 292 20593ft 272kts
25-Mar-20 22:14 38.922211 -119.094698 293 19116ft 277kts
25-Mar-20 22:15 38.958363 -119.183194 293 17626ft 280kts
25-Mar-20 22:16 38.993578 -119.273308 293 16129ft 279kts
25-Mar-20 22:17 39.025491 -119.356114 293 15979ft 249kts
25-Mar-20 22:17 39.050502 -119.420476 293 15814ft 247kts
25-Mar-20 22:19 39.087062 -119.516738 293 14079ft 259kts
25-Mar-20 22:20 39.117039 -119.599269 293 12602ft 258kts
25-Mar-20 22:20 39.141757 -119.669553 292 11340ft 256kts
25-Mar-20 22:21 39.172268 -119.745630 328 9725ft 217kts
25-Mar-20 22:23 39.236507 -119.770889 3 9018ft 218kts
25-Mar-20 22:23 39.292207 -119.769896 359 8865ft 250kts
25-Mar-20 22:24 39.360046 -119.769658 358 7286ft 210kts
25-Mar-20 22:26 39.416611 -119.769481 358 6013ft 138kts
25-Mar-20 22:26 39.445683 -119.769400 358 5355ft 114kts
25-Mar-20 22:27 39.472104 -119.769349 358 4761ft 81kts
25-Mar-20 22:28 39.491691 -119.769290 1 4418ft 29kts
25-Mar-20 22:29 39.494610 -119.767842 30 4418ft 0kts
25-Mar-20 22:30 39.495081 -119.767488 29 4418ft 14kts
25-Mar-20 22:31 39.497981 -119.765637 315 4418ft 8kts
25-Mar-20 22:32 39.500862 -119.765214 88 4418ft 0kts
25-Mar-20 22:33 39.501771 -119.764463 264 4418ft 0kts
25-Mar-20 22:34 39.501771 -119.764470 266 4418ft 0kts
25-Mar-20 22:35 39.501771 -119.764469 266 4418ft 0kts
25-Mar-20 22:36 39.501771 -119.764469 266 4418ft 0kts
25-Mar-20 22:37 39.501771 -119.764469 266 4418ft 0kts
25-Mar-20 22:38 39.501771 -119.764469 266 4418ft 0kts
25-Mar-20 22:39 39.501771 -119.764469 266 4418ft 0kts
25-Mar-20 22:40 39.501771 -119.764469 266 4418ft 0kts
25-Mar-20 22:41 39.501771 -119.764469 266 4418ft 0kts
25-Mar-20 22:42 39.501771 -119.764469 266 4418ft 0kts

Navigation Log

Ident Type
Flight plan parsing failed, navigation log unavailable